Tain, United Kingdom
Current Conditions -  °F | °C
As of 3:20 PM on Friday 31 Oct 2014 (Local Time) from EGPE Reporting Station
Scattered Clouds Scattered Clouds  
Wind Chill: 63°   Ceiling: Unl
Heat Index: 63°   Visibility: 6mi
Dew Point: 55°   Wind: 14mph
Humidity: 77%   Direction: 190°S
Pressure: 29.59"   Gusts: NA
Location:  57.81°N, 4.06°W
Report Text: EGPE 311520Z 19012KT 9999 SCT030 17/13 Q1002
Loading
Personal Weather Stations






























Interactive Weather Map New forecast layout! Learn more

10-Day Weather Forecast

Advertisements
Track Severe Weather on mobile